Time;durP1;ratioP1;P1;durP2;ratioP2;P2;SDS_P1;SDS_P2;PMS_P1;PMS_P2;Temp;Humidity;BMP_temperature;BMP_pressure;BME280_temperature;BME280_humidity;BME280_pressure;Samples;Min_cycle;Max_cycle;Signal;HPM_P1;HPM_P2
2021/12/12 00:00:57;;;;;;;17.80;8.13;;;;;;;-1.69;100.00;98601.22;4438929;32;20110;-72
2021/12/12 00:03:34;;;;;;;15.55;8.00;;;;;;;-1.70;100.00;98584.13;4451797;32;20105;-72
2021/12/12 00:06:07;;;;;;;10.60;6.40;;;;;;;-1.73;100.00;98599.69;4451982;32;20630;-72
2021/12/12 00:08:36;;;;;;;18.87;9.07;;;;;;;-1.72;100.00;98599.63;4451783;32;20084;-72
2021/12/12 00:11:08;;;;;;;16.73;7.07;;;;;;;-1.71;100.00;98592.72;4451879;32;20137;-72
2021/12/12 00:13:43;;;;;;;21.42;10.25;;;;;;;-1.72;100.00;98597.03;4451682;32;20226;-72
2021/12/12 00:16:11;;;;;;;18.83;8.38;;;;;;;-1.77;100.00;98604.13;4451846;32;20232;-72
2021/12/12 00:18:41;;;;;;;14.68;7.37;;;;;;;-1.75;100.00;98601.47;4451978;32;20112;-72
2021/12/12 00:21:10;;;;;;;14.87;8.48;;;;;;;-1.76;100.00;98605.75;4451884;32;20187;-72
2021/12/12 00:23:38;;;;;;;14.02;7.28;;;;;;;-1.75;100.00;98598.91;4465344;32;20096;-72
2021/12/12 00:26:06;;;;;;;18.40;8.40;;;;;;;-1.81;100.00;98613.66;4485450;31;20134;-72
2021/12/12 00:28:33;;;;;;;14.80;8.52;;;;;;;-1.83;100.00;98620.59;4490330;31;20396;-72
2021/12/12 00:31:08;;;;;;;20.27;9.73;;;;;;;-1.80;100.00;98632.50;4501586;31;20084;-72
2021/12/12 00:33:36;;;;;;;;;;;;;;;-1.87;100.00;98631.88;4501678;31;20080;-72
2021/12/12 00:36:04;;;;;;;17.60;8.98;;;;;;;-1.84;100.00;98623.25;4501338;31;19983;-72
2021/12/12 00:38:33;;;;;;;16.58;8.93;;;;;;;-1.86;100.00;98645.56;4499842;31;20598;-72
2021/12/12 00:41:05;;;;;;;23.38;9.02;;;;;;;-1.81;100.00;98639.34;4501165;31;20122;-72
2021/12/12 00:43:40;;;;;;;18.15;8.10;;;;;;;-1.81;100.00;98623.94;4501022;31;20103;-72
2021/12/12 00:46:10;;;;;;;19.02;9.10;;;;;;;-1.83;100.00;98623.16;4501060;31;20163;-72
2021/12/12 00:48:40;;;;;;;23.35;9.45;;;;;;;-1.84;100.00;98623.25;4500778;31;20131;-72
2021/12/12 00:51:12;;;;;;;16.87;9.38;;;;;;;-1.86;100.00;98625.00;4501073;31;20790;-72
2021/12/12 00:53:41;;;;;;;18.02;7.68;;;;;;;-1.84;100.00;98636.06;4500963;31;20126;-72
2021/12/12 00:56:09;;;;;;;17.70;9.07;;;;;;;-1.83;100.00;98630.06;4501110;31;20167;-72
2021/12/12 00:58:37;;;;;;;25.50;9.88;;;;;;;-1.80;100.00;98635.06;4500778;31;20092;-73
2021/12/12 01:01:18;;;;;;;18.37;8.75;;;;;;;-1.81;100.00;98644.47;4500901;31;20160;-72
2021/12/12 01:03:50;;;;;;;23.58;9.57;;;;;;;-1.80;100.00;98637.63;4500949;31;20548;-72
2021/12/12 01:06:19;;;;;;;22.95;8.40;;;;;;;-1.84;100.00;98679.72;4501011;31;20115;-72
2021/12/12 01:08:47;;;;;;;17.85;8.82;;;;;;;-1.83;100.00;98651.41;4500825;31;20704;-72
2021/12/12 01:11:27;;;;;;;18.55;8.82;;;;;;;-1.82;100.00;98657.38;4500015;31;20099;-72
2021/12/12 01:13:55;;;;;;;20.73;10.65;;;;;;;-1.82;100.00;98644.53;4500828;31;20155;-72
2021/12/12 01:16:34;;;;;;;26.40;11.55;;;;;;;-1.82;100.00;98649.66;4500925;31;20493;-72
2021/12/12 01:19:13;;;;;;;27.70;11.65;;;;;;;-1.83;100.00;98653.97;4500734;31;20064;-72
2021/12/12 01:21:44;;;;;;;20.90;10.32;;;;;;;-1.84;100.00;98648.91;4500854;31;20081;-72
2021/12/12 01:24:19;;;;;;;19.62;8.65;;;;;;;-1.82;100.00;98667.66;4500619;31;20478;-72
2021/12/12 01:26:47;;;;;;;17.27;8.80;;;;;;;-1.83;100.00;98678.84;4501002;31;20076;-72
2021/12/12 01:29:14;;;;;;;22.15;10.93;;;;;;;-1.85;100.00;98670.34;4490800;31;20119;-72
2021/12/12 01:31:47;;;;;;;23.50;11.23;;;;;;;-1.85;100.00;98671.16;4483949;32;20093;-71
2021/12/12 01:34:17;;;;;;;26.52;9.88;;;;;;;-1.89;100.00;98663.66;4484764;31;20135;-72
2021/12/12 01:39:34;;;;;;;30.75;12.68;;;;;;;-1.86;100.00;98682.34;4484748;31;20081;-72
2021/12/12 01:42:04;;;;;;;22.55;11.20;;;;;;;-1.86;100.00;98663.53;4485347;31;20374;-71
2021/12/12 01:44:31;;;;;;;23.12;10.07;;;;;;;-1.84;100.00;98660.00;4485161;31;20790;-71
2021/12/12 01:47:07;;;;;;;29.08;12.82;;;;;;;-1.85;100.00;98671.16;4484877;31;20115;-72
2021/12/12 01:49:38;;;;;;;29.08;12.15;;;;;;;-1.90;100.00;98667.13;4483445;32;20170;-72
2021/12/12 01:52:07;;;;;;;27.08;13.45;;;;;;;-1.89;100.00;98671.34;4484934;31;20100;-71
2021/12/12 01:54:44;;;;;;;28.27;12.55;;;;;;;-1.90;100.00;98678.22;4484543;31;20119;-71
2021/12/12 01:57:22;;;;;;;27.67;10.07;;;;;;;-1.89;100.00;98673.91;4484901;32;20202;-72
2021/12/12 01:59:50;;;;;;;27.48;11.90;;;;;;;-1.90;100.00;98674.84;4484361;31;20098;-72
2021/12/12 02:02:24;;;;;;;26.37;12.25;;;;;;;-1.91;100.00;98699.66;4483648;32;20125;-72
2021/12/12 02:04:57;;;;;;;20.48;10.38;;;;;;;-1.91;100.00;98694.53;4484584;31;20158;-71
2021/12/12 02:07:29;;;;;;;23.52;9.90;;;;;;;-1.86;100.00;98720.00;4484659;31;20111;-71
2021/12/12 02:10:00;;;;;;;29.23;12.07;;;;;;;-1.87;100.00;98687.56;4484283;31;20193;-72
2021/12/12 02:12:27;;;;;;;35.72;13.02;;;;;;;-1.89;100.00;98681.63;4484503;31;20093;-72
2021/12/12 02:14:56;;;;;;;23.40;10.05;;;;;;;-1.90;100.00;98687.66;4483152;32;20104;-71
2021/12/12 02:17:34;;;;;;;26.87;13.45;;;;;;;-1.85;100.00;98670.34;4484216;31;20088;-71
2021/12/12 02:20:20;;;;;;;21.40;9.90;;;;;;;-1.88;100.00;98650.75;4484070;31;20098;-71
2021/12/12 02:36:32;;;;;;;25.70;11.35;;;;;;;-1.85;100.00;98660.06;4486254;32;20153;-72
2021/12/12 02:39:05;;;;;;;22.35;11.38;;;;;;;-1.87;100.00;98649.88;4485983;31;20552;-72
2021/12/12 02:41:32;;;;;;;23.25;10.02;;;;;;;-1.86;100.00;98681.50;4486221;31;20095;-72
2021/12/12 02:44:02;;;;;;;27.65;10.43;;;;;;;-1.88;100.00;98648.19;4486269;32;20097;-72
2021/12/12 02:46:33;;;;;;;19.83;8.85;;;;;;;-1.87;100.00;98660.13;4486576;31;20076;-72
2021/12/12 02:49:12;;;;;;;19.83;9.40;;;;;;;-1.90;100.00;98647.41;4485934;32;20110;-71
2021/12/12 02:51:41;;;;;;;26.23;12.27;;;;;;;-1.91;100.00;98663.72;4486129;31;20080;-72
2021/12/12 02:54:10;;;;;;;25.27;11.70;;;;;;;-1.93;100.00;98682.66;4485777;32;20123;-71
2021/12/12 02:56:41;;;;;;;15.85;8.25;;;;;;;-1.93;100.00;98670.66;4486271;31;20454;-71
2021/12/12 02:59:13;;;;;;;23.77;10.65;;;;;;;-1.92;100.00;98656.06;4485846;31;20104;-72
2021/12/12 03:01:49;;;;;;;25.88;12.88;;;;;;;-1.92;100.00;98667.19;4486017;31;20080;-71
2021/12/12 03:04:17;;;;;;;24.98;10.02;;;;;;;-1.90;100.00;98674.84;4486146;31;20065;-71
2021/12/12 03:06:45;;;;;;;21.35;10.57;;;;;;;-1.89;99.99;98682.47;4486081;31;20088;-71
2021/12/12 03:09:15;;;;;;;25.35;10.77;;;;;;;-1.92;100.00;98676.59;4485774;31;20485;-71
2021/12/12 03:11:44;;;;;;;24.02;10.43;;;;;;;-1.91;99.65;98658.56;4486005;32;20099;-72
2021/12/12 03:14:12;;;;;;;25.75;9.65;;;;;;;-1.88;99.61;98675.59;4485708;31;20096;-71
2021/12/12 03:16:40;;;;;;;22.60;8.73;;;;;;;-1.90;99.63;98669.69;4485973;31;20165;-71
2021/12/12 03:19:08;;;;;;;21.48;10.35;;;;;;;-1.94;99.76;98679.25;4485762;31;20111;-71
2021/12/12 03:21:42;;;;;;;20.25;9.05;;;;;;;-1.96;99.29;98666.47;4487019;31;20160;-71
2021/12/12 03:24:14;;;;;;;24.08;9.65;;;;;;;-1.90;98.80;98683.37;4501507;31;20110;-72
2021/12/12 03:26:44;;;;;;;24.12;9.77;;;;;;;-1.88;98.49;98655.06;4501803;31;20092;-71
2021/12/12 03:29:11;;;;;;;24.67;10.63;;;;;;;-1.89;98.35;98668.78;4492164;31;20545;-71
2021/12/12 03:31:42;;;;;;;22.55;12.07;;;;;;;-1.93;98.60;98672.41;4485655;31;20474;-71
2021/12/12 03:34:13;;;;;;;18.55;8.98;;;;;;;-1.91;97.87;98676.53;4485167;31;20092;-71
2021/12/12 03:36:41;;;;;;;22.62;10.93;;;;;;;-1.91;97.73;98688.56;4485716;32;20204;-72
2021/12/12 03:39:20;;;;;;;21.00;8.75;;;;;;;-1.91;97.83;98693.69;4485860;31;20092;-71
2021/12/12 03:41:48;;;;;;;17.70;8.68;;;;;;;-1.90;97.70;98705.66;4485687;32;20080;-71
2021/12/12 03:44:21;;;;;;;21.10;9.48;;;;;;;-1.90;97.18;98697.94;4485716;31;20096;-71
2021/12/12 03:46:51;;;;;;;19.23;9.75;;;;;;;-1.93;97.47;98709.16;4485826;32;20143;-71
2021/12/12 03:49:20;;;;;;;24.42;9.50;;;;;;;-2.05;98.12;98707.06;4485504;31;20088;-72
2021/12/12 03:51:47;;;;;;;19.87;10.55;;;;;;;-1.99;97.86;98732.50;4485468;31;20123;-72
2021/12/12 03:54:16;;;;;;;21.98;9.90;;;;;;;-2.04;97.43;98717.28;4485543;32;20093;-72
2021/12/12 03:56:44;;;;;;;24.00;10.63;;;;;;;-2.06;97.27;98736.19;4485586;31;20092;-71
2021/12/12 03:59:12;;;;;;;26.20;10.32;;;;;;;-1.96;96.74;98729.81;4485422;31;20114;-71
2021/12/12 04:01:44;;;;;;;27.37;11.23;;;;;;;-1.97;96.63;98735.84;4485338;31;20132;-71
2021/12/12 04:04:14;;;;;;;27.67;11.00;;;;;;;-2.04;96.83;98742.13;4485520;31;20145;-71
2021/12/12 04:06:42;;;;;;;28.98;11.80;;;;;;;-2.04;97.01;98754.97;4485304;31;20093;-72
2021/12/12 04:09:10;;;;;;;16.95;8.75;;;;;;;-2.05;96.62;98751.53;4485576;31;20123;-71
2021/12/12 04:11:41;;;;;;;21.55;10.85;;;;;;;-2.03;96.56;98741.22;4485507;31;20167;-71
2021/12/12 04:14:10;;;;;;;23.70;10.32;;;;;;;-2.06;96.27;98749.88;4485533;31;20457;-71
2021/12/12 04:16:39;;;;;;;25.90;12.07;;;;;;;-1.99;95.76;98737.63;4485726;31;20135;-71
2021/12/12 04:19:07;;;;;;;22.35;12.00;;;;;;;-2.04;95.75;98742.13;4485387;31;20469;-71
2021/12/12 04:21:36;;;;;;;22.90;11.07;;;;;;;-2.03;95.67;98752.34;4486622;31;20101;-71
2021/12/12 04:24:03;;;;;;;22.77;10.07;;;;;;;-2.02;95.63;98750.59;4501117;31;20475;-72
2021/12/12 04:26:40;;;;;;;28.05;10.82;;;;;;;-2.03;95.56;98751.47;4501278;31;20096;-71
2021/12/12 04:29:12;;;;;;;22.27;10.13;;;;;;;-2.01;95.34;98755.66;4492278;31;20101;-72
2021/12/12 04:31:45;;;;;;;26.35;10.77;;;;;;;-2.06;95.46;98754.16;4485422;31;20095;-71
2021/12/12 04:34:13;;;;;;;24.45;12.02;;;;;;;-2.07;95.53;98761.03;4485453;31;20103;-71
2021/12/12 04:36:43;;;;;;;28.33;11.25;;;;;;;-2.05;95.22;98774.63;4485314;31;20106;-71
2021/12/12 04:39:14;;;;;;;23.20;11.10;;;;;;;-2.06;95.20;98770.41;4485326;31;20126;-71
2021/12/12 04:41:44;;;;;;;20.88;10.48;;;;;;;-2.07;95.30;98749.94;4485208;31;20115;-71
2021/12/12 04:44:12;;;;;;;23.20;9.57;;;;;;;-2.08;95.54;98755.97;4485295;31;20119;-71
2021/12/12 04:49:57;;;;;;;23.67;10.32;;;;;;;-2.15;96.03;98760.47;4485102;32;20143;-71
2021/12/12 04:52:33;;;;;;;24.40;12.52;;;;;;;-2.15;95.87;98771.59;4485432;31;20201;-71
2021/12/12 04:55:06;;;;;;;24.75;11.05;;;;;;;-2.16;95.62;98763.94;4485172;31;20117;-71
2021/12/12 04:58:16;;;;;;;22.62;10.13;;;;;;;-2.11;95.35;98772.31;4485191;31;20102;-71
2021/12/12 05:00:57;;;;;;;26.90;9.93;;;;;;;-2.11;95.64;98756.06;4436074;32;20089;-71
2021/12/12 05:03:58;;;;;;;19.90;9.05;;;;;;;-2.13;95.47;98761.28;4435903;32;20119;-71
2021/12/12 05:06:34;;;;;;;23.48;11.23;;;;;;;-2.11;95.53;98756.06;4423200;32;20125;-71
2021/12/12 05:09:24;;;;;;;24.42;10.27;;;;;;;-2.15;95.32;98783.56;4436037;32;20550;-71
2021/12/12 05:11:52;;;;;;;27.45;14.32;;;;;;;-2.14;95.10;98811.75;4435766;32;20196;-72
2021/12/12 05:14:23;;;;;;;33.60;14.07;;;;;;;-2.16;95.13;98779.34;4423376;32;20094;-71
2021/12/12 05:17:13;;;;;;;27.13;12.65;;;;;;;-2.18;95.10;98755.44;4435936;32;20128;-72
2021/12/12 05:19:46;;;;;;;17.10;8.98;;;;;;;-2.18;94.91;98788.81;4436072;32;20096;-72
2021/12/12 05:22:18;;;;;;;26.58;11.18;;;;;;;-2.14;94.67;98780.94;4428438;32;20143;-71
2021/12/12 05:24:48;;;;;;;18.58;10.48;;;;;;;-2.17;94.60;98764.84;4438502;32;20624;-72
2021/12/12 05:27:18;;;;;;;22.27;11.00;;;;;;;-2.16;94.52;98781.91;4438522;32;20239;-72
2021/12/12 05:29:56;;;;;;;26.30;9.90;;;;;;;-2.19;94.44;98787.16;4438493;32;20138;-72
2021/12/12 05:32:24;;;;;;;22.62;9.05;;;;;;;-2.18;94.55;98779.41;4438448;32;20089;-72
2021/12/12 05:34:54;;;;;;;22.62;10.27;;;;;;;-2.22;94.70;98782.97;4438698;32;20093;-71
2021/12/12 05:37:22;;;;;;;27.23;10.00;;;;;;;-2.21;94.81;98799.19;4478193;32;20096;-72
2021/12/12 05:39:50;;;;;;;34.25;12.95;;;;;;;-2.30;95.30;98815.78;4483558;32;20100;-71
2021/12/12 05:42:19;;;;;;;23.40;11.02;;;;;;;-2.27;94.85;98789.16;4483400;32;20088;-72
2021/12/12 05:44:46;;;;;;;28.70;9.80;;;;;;;-2.24;94.65;98789.03;4484774;31;20100;-71
2021/12/12 05:47:14;;;;;;;25.15;9.65;;;;;;;-2.26;95.02;98794.22;4484947;31;20093;-71
2021/12/12 05:49:42;;;;;;;17.48;9.52;;;;;;;-2.32;95.30;98805.56;4483351;32;20172;-71
2021/12/12 05:52:11;;;;;;;24.95;10.95;;;;;;;-2.35;95.46;98809.97;4484618;31;20092;-72
2021/12/12 05:54:39;;;;;;;27.02;9.75;;;;;;;-2.27;94.93;98802.00;4484611;31;20170;-71
2021/12/12 05:57:09;;;;;;;23.15;11.38;;;;;;;-2.26;94.99;98790.84;4483821;31;20135;-72
2021/12/12 05:59:38;;;;;;;17.70;8.68;;;;;;;-2.33;95.08;98788.50;4484575;31;20160;-71
2021/12/12 06:02:06;;;;;;;23.00;9.75;;;;;;;-2.34;95.13;98791.94;4484597;31;20123;-72
2021/12/12 06:04:34;;;;;;;21.23;7.43;;;;;;;-2.30;94.92;98795.25;4484824;31;20501;-72
2021/12/12 06:07:08;;;;;;;24.58;8.27;;;;;;;-2.34;95.28;98799.66;4483503;32;20088;-72
2021/12/12 06:09:35;;;;;;;17.43;8.37;;;;;;;-2.33;94.99;98801.34;4484608;31;20148;-72
2021/12/12 06:12:05;;;;;;;18.27;8.68;;;;;;;-2.33;95.02;98806.47;4483287;32;20093;-72
2021/12/12 06:14:36;;;;;;;17.67;9.18;;;;;;;-2.30;94.76;98794.41;4484350;32;20068;-71
2021/12/12 06:17:07;;;;;;;15.00;7.18;;;;;;;-2.32;94.71;98813.28;4483041;32;20096;-72
2021/12/12 06:19:34;;;;;;;22.85;8.93;;;;;;;-2.33;94.74;98818.47;4484410;31;20103;-72
2021/12/12 06:22:03;;;;;;;17.80;8.77;;;;;;;-2.33;94.86;98808.19;4488356;31;20100;-71
2021/12/12 06:24:31;;;;;;;18.92;8.02;;;;;;;-2.32;94.81;98823.53;4500014;31;20083;-72
2021/12/12 06:27:25;;;;;;;12.68;7.15;;;;;;;-2.33;94.79;98844.13;4499845;31;20100;-72
2021/12/12 06:29:54;;;;;;;13.18;6.18;;;;;;;-2.27;94.46;98830.22;4497541;31;20100;-72
2021/12/12 06:32:22;;;;;;;14.30;6.43;;;;;;;-2.30;94.51;98835.47;4499925;31;20088;-72
2021/12/12 06:34:50;;;;;;;16.25;6.45;;;;;;;-2.24;94.12;98832.66;4499837;31;20122;-72
2021/12/12 06:37:17;;;;;;;21.23;6.10;;;;;;;-2.24;94.02;98876.28;4498497;31;20097;-72
2021/12/12 06:39:45;;;;;;;13.90;5.53;;;;;;;-2.25;94.01;98852.38;4499916;31;20092;-71
2021/12/12 06:42:13;;;;;;;15.88;7.18;;;;;;;-2.18;93.58;98841.00;4499827;31;20417;-72
2021/12/12 06:44:41;;;;;;;10.00;5.70;;;;;;;-2.16;93.18;98838.38;4499928;31;20105;-72
2021/12/12 06:47:09;;;;;;;10.65;4.45;;;;;;;-2.11;92.98;98844.16;4499605;31;20108;-72
2021/12/12 06:49:37;;;;;;;20.35;9.25;;;;;;;-2.15;93.16;98855.44;4499452;31;20163;-71
2021/12/12 06:52:07;;;;;;;18.50;8.10;;;;;;;-2.12;92.90;98839.09;4499619;31;20092;-72
2021/12/12 06:54:34;;;;;;;12.30;5.40;;;;;;;-2.10;92.64;98838.16;4499478;31;20083;-72
2021/12/12 06:57:05;;;;;;;14.27;6.55;;;;;;;-2.07;92.24;98838.03;4498498;31;20118;-72
2021/12/12 06:59:34;;;;;;;12.82;5.65;;;;;;;-2.07;92.76;98827.78;4499495;31;20144;-72
2021/12/12 07:02:03;;;;;;;13.10;6.68;;;;;;;-2.09;92.72;98838.97;4499361;31;20114;-72
2021/12/12 07:04:32;;;;;;;12.50;6.53;;;;;;;-2.03;92.68;98834.47;4499372;31;20123;-72
2021/12/12 07:07:01;;;;;;;13.27;5.62;;;;;;;-2.05;92.63;98851.66;4498231;31;20104;-72
2021/12/12 07:09:32;;;;;;;11.10;5.43;;;;;;;-1.98;92.31;98842.81;4500159;31;20453;-72
2021/12/12 07:12:03;;;;;;;14.32;7.35;;;;;;;-1.97;92.25;98852.22;4501756;31;20112;-72
2021/12/12 07:14:32;;;;;;;13.65;6.20;;;;;;;-1.99;92.23;98855.72;4501590;31;20436;-72
2021/12/12 07:17:00;;;;;;;12.40;6.85;;;;;;;-1.94;91.84;98852.97;4501618;31;20104;-72
2021/12/12 07:19:28;;;;;;;11.27;5.62;;;;;;;-1.99;92.24;98843.72;4501591;31;20096;-72
2021/12/12 07:21:59;;;;;;;10.10;5.10;;;;;;;-1.93;91.85;98868.34;4498191;31;20486;-72
2021/12/12 07:24:28;;;;;;;12.75;6.53;;;;;;;-1.93;92.07;98844.41;4485600;31;20084;-71
2021/12/12 07:26:56;;;;;;;18.10;6.32;;;;;;;-1.91;91.63;98845.16;4484617;32;20108;-72
2021/12/12 07:29:23;;;;;;;11.73;4.90;;;;;;;-1.91;91.70;98834.91;4495083;31;20200;-72
2021/12/12 07:31:52;;;;;;;10.68;5.75;;;;;;;-1.88;91.59;98855.31;4501727;31;20104;-71
2021/12/12 07:34:20;;;;;;;11.77;5.03;;;;;;;-1.97;91.82;98852.22;4500178;31;20175;-72
2021/12/12 07:36:50;;;;;;;12.30;5.35;;;;;;;-1.92;91.67;98851.19;4500489;31;20092;-72
2021/12/12 07:39:19;;;;;;;11.00;6.12;;;;;;;-1.93;91.55;98846.97;4501454;31;20096;-72
2021/12/12 07:41:47;;;;;;;10.85;4.43;;;;;;;-1.94;91.56;98838.41;4500336;31;20183;-71
2021/12/12 07:44:18;;;;;;;11.80;5.30;;;;;;;-1.94;91.62;98850.41;4501378;31;20100;-72
2021/12/12 07:46:47;;;;;;;11.50;5.60;;;;;;;-1.92;91.51;98843.47;4501612;31;20089;-71
2021/12/12 07:49:18;;;;;;;12.60;4.87;;;;;;;-1.88;91.21;98857.87;4501492;31;20096;-71
2021/12/12 07:51:46;;;;;;;12.98;5.35;;;;;;;-1.90;91.50;98875.91;4501676;31;20449;-72
2021/12/12 07:54:13;;;;;;;12.20;5.32;;;;;;;-1.85;90.99;98843.19;4501272;31;20092;-72
2021/12/12 07:56:42;;;;;;;9.23;4.50;;;;;;;-1.84;91.04;98865.41;4500281;31;20575;-72
2021/12/12 07:59:11;;;;;;;11.00;4.90;;;;;;;-1.82;91.14;98861.09;4501329;31;20425;-72
2021/12/12 08:01:41;;;;;;;12.32;4.90;;;;;;;-1.79;90.80;98847.28;4501452;31;20116;-72
2021/12/12 08:04:10;;;;;;;11.32;5.68;;;;;;;-1.75;90.36;98866.00;4501490;31;20147;-72
2021/12/12 08:06:38;;;;;;;9.45;4.37;;;;;;;-1.71;90.45;98849.56;4500307;31;20126;-72
2021/12/12 08:09:06;;;;;;;14.43;5.45;;;;;;;-1.66;90.21;98866.47;4501177;31;20091;-72
2021/12/12 08:11:35;;;;;;;11.15;5.87;;;;;;;-1.68;90.59;98865.69;4501441;31;20088;-72
2021/12/12 08:14:06;;;;;;;10.98;5.87;;;;;;;-1.66;89.85;98865.63;4500024;31;20140;-71
2021/12/12 08:16:34;;;;;;;11.75;5.78;;;;;;;-1.59;89.42;98848.25;4501401;31;20506;-71
2021/12/12 08:19:01;;;;;;;10.35;5.62;;;;;;;-1.57;89.49;98867.03;4501394;31;20598;-71
2021/12/12 08:21:33;;;;;;;8.02;5.07;;;;;;;-1.49;88.56;98865.00;4499224;31;20088;-72
2021/12/12 08:24:05;;;;;;;14.50;7.37;;;;;;;-1.43;88.69;98860.44;4484300;32;20072;-72
2021/12/12 08:26:35;;;;;;;7.07;3.85;;;;;;;-1.41;87.22;98832.12;4484474;32;20088;-71
2021/12/12 08:29:08;;;;;;;10.10;4.65;;;;;;;-1.33;88.13;98860.94;4493746;31;20123;-71
2021/12/12 08:31:36;;;;;;;6.90;3.35;;;;;;;-1.26;87.46;98866.66;4501308;31;20110;-71
2021/12/12 08:34:06;;;;;;;9.77;4.57;;;;;;;-1.18;87.34;98880.06;4499945;31;20114;-72
2021/12/12 08:36:36;;;;;;;9.73;4.75;;;;;;;-1.05;87.02;98895.00;4501309;31;20149;-72
2021/12/12 08:39:09;;;;;;;8.75;5.20;;;;;;;-1.03;86.47;98870.91;4499799;31;20131;-71
2021/12/12 08:41:37;;;;;;;6.53;3.50;;;;;;;-1.02;86.13;98864.00;4501298;31;20088;-71
2021/12/12 08:44:06;;;;;;;6.22;3.72;;;;;;;-0.92;86.06;98875.59;4501177;31;20079;-72
2021/12/12 08:46:34;;;;;;;6.50;3.05;;;;;;;-0.87;86.15;98908.84;4501255;31;20096;-72
2021/12/12 08:49:01;;;;;;;9.27;4.62;;;;;;;-0.88;85.57;98854.00;4500026;31;20469;-71
2021/12/12 08:51:34;;;;;;;7.82;3.80;;;;;;;-0.83;85.27;98861.50;4501075;31;20088;-72
2021/12/12 08:54:13;;;;;;;7.28;4.30;;;;;;;-0.75;84.87;98862.06;4500949;31;20140;-72
2021/12/12 08:56:48;;;;;;;5.45;3.00;;;;;;;-0.65;85.08;98867.63;4501073;31;20096;-72
2021/12/12 08:59:26;;;;;;;7.47;3.28;;;;;;;-0.63;85.19;98874.41;4501160;31;20092;-72
2021/12/12 09:01:59;;;;;;;8.15;4.20;;;;;;;-0.58;84.25;98864.75;4501080;31;20088;-71
2021/12/12 09:04:32;;;;;;;6.20;3.35;;;;;;;-0.43;85.48;98863.25;4501022;31;20086;-72
2021/12/12 09:07:14;;;;;;;11.18;4.80;;;;;;;-0.41;84.05;98876.91;4501058;31;20096;-72
2021/12/12 09:09:46;;;;;;;7.55;3.72;;;;;;;-0.40;84.57;98875.16;4499683;31;20104;-72
2021/12/12 09:12:41;;;;;;;5.78;3.20;;;;;;;-0.38;84.20;98848.47;4500907;31;20147;-72
2021/12/12 09:15:19;;;;;;;;;;;;;;;-0.32;84.11;98874.84;4499059;31;20110;-72
2021/12/12 09:17:52;;;;;;;7.07;3.17;;;;;;;-0.29;83.27;98872.13;4499818;31;19999;-72
2021/12/12 09:20:26;;;;;;;8.27;3.55;;;;;;;-0.27;84.45;98870.31;4500580;31;20475;-72
2021/12/12 09:23:01;;;;;;;8.65;3.50;;;;;;;-0.23;84.49;98862.41;4490849;31;20138;-72
2021/12/12 09:25:50;;;;;;;5.40;3.10;;;;;;;-0.26;84.74;98864.28;4483467;32;20085;-72
2021/12/12 09:28:22;;;;;;;6.00;3.10;;;;;;;-0.22;84.19;98865.81;4488381;31;20100;-72
2021/12/12 09:30:50;;;;;;;8.45;3.70;;;;;;;-0.16;84.35;98847.53;4499367;31;20484;-72
2021/12/12 09:33:25;;;;;;;7.53;3.70;;;;;;;-0.07;83.67;98864.31;4499714;31;20165;-72
2021/12/12 09:35:57;;;;;;;7.22;3.37;;;;;;;-0.12;82.93;98859.38;4499356;31;20118;-72
2021/12/12 09:38:41;;;;;;;12.45;3.95;;;;;;;0.00;83.22;98868.28;4500798;31;20143;-72
2021/12/12 09:41:27;;;;;;;5.83;3.70;;;;;;;0.06;82.11;98849.13;4500664;31;20445;-72
2021/12/12 09:44:19;;;;;;;8.25;3.75;;;;;;;0.14;82.24;98849.63;4500556;31;20262;-72
2021/12/12 09:47:29;;;;;;;10.50;4.12;;;;;;;0.22;82.72;98846.72;4499421;31;20087;-72
2021/12/12 09:53:37;;;;;;;5.90;4.03;;;;;;;0.42;82.44;98856.91;4435552;32;20538;-72
2021/12/12 09:56:12;;;;;;;5.32;3.20;;;;;;;0.45;81.72;98859.34;4435519;32;20101;-72
2021/12/12 09:58:40;;;;;;;6.40;3.25;;;;;;;0.45;80.96;98861.09;4422550;32;20169;-72
2021/12/12 10:01:18;;;;;;;4.93;3.40;;;;;;;0.46;80.87;98853.31;4435295;32;20848;-72
2021/12/12 10:03:49;;;;;;;8.90;3.28;;;;;;;0.49;81.12;98853.16;4435416;32;20144;-72
2021/12/12 10:06:58;;;;;;;5.65;3.55;;;;;;;0.58;80.18;98857.06;4435455;32;20581;-72
2021/12/12 10:09:56;;;;;;;9.57;5.10;;;;;;;0.73;80.95;98863.25;4389564;32;20583;-73
2021/12/12 10:12:31;;;;;;;5.15;3.05;;;;;;;0.75;80.08;98852.84;4389589;32;20130;-73
2021/12/12 10:14:58;;;;;;;5.85;3.00;;;;;;;0.83;80.00;98859.31;4389719;32;20118;-72
2021/12/12 10:17:35;;;;;;;10.10;4.18;;;;;;;0.91;81.06;98853.78;4389316;32;20095;-73
2021/12/12 10:20:27;;;;;;;6.28;3.30;;;;;;;0.97;80.81;98857.78;4376988;32;20130;-73
2021/12/12 10:23:15;;;;;;;5.37;2.83;;;;;;;0.91;80.07;98852.94;4379983;32;20142;-73
2021/12/12 10:25:46;;;;;;;8.93;3.87;;;;;;;0.87;79.41;98850.50;4374187;32;20099;-72
2021/12/12 10:29:00;;;;;;;5.53;3.25;;;;;;;0.88;80.01;98854.75;4377152;32;20103;-72
2021/12/12 10:31:32;;;;;;;9.50;3.90;;;;;;;0.92;78.84;98844.28;4446424;32;20113;-73
2021/12/12 10:33:59;;;;;;;5.70;2.67;;;;;;;0.97;79.05;98857.78;4450499;32;20123;-72
2021/12/12 10:36:33;;;;;;;6.72;3.42;;;;;;;1.02;78.63;98863.59;4450309;32;20600;-72
2021/12/12 10:39:04;;;;;;;7.53;4.18;;;;;;;1.03;79.44;98863.50;4450582;32;20081;-73
2021/12/12 10:41:39;;;;;;;8.65;3.62;;;;;;;0.97;78.66;98861.22;4450264;32;20142;-73
2021/12/12 10:44:12;;;;;;;6.20;3.62;;;;;;;0.95;79.49;98862.19;4490755;31;20548;-73
2021/12/12 10:46:54;;;;;;;9.10;4.83;;;;;;;0.90;79.21;98866.75;4501933;31;20096;-72
2021/12/12 10:49:29;;;;;;;12.15;4.43;;;;;;;0.96;78.79;98853.56;4502129;31;20080;-72
2021/12/12 10:52:16;;;;;;;5.72;3.47;;;;;;;1.01;79.16;98859.31;4501875;31;20401;-72
2021/12/12 10:54:52;;;;;;;7.90;4.15;;;;;;;0.93;79.31;98874.34;4500625;31;20122;-72
2021/12/12 10:57:23;;;;;;;4.78;3.12;;;;;;;1.01;79.39;98843.84;4500947;31;20104;-72
2021/12/12 10:59:56;;;;;;;6.28;3.95;;;;;;;0.93;78.41;98903.53;4501819;31;20088;-72
2021/12/12 11:02:30;;;;;;;9.85;3.83;;;;;;;0.97;78.16;98865.53;4500730;31;20477;-72
2021/12/12 11:05:10;;;;;;;7.20;2.50;;;;;;;0.96;78.05;98887.09;4501854;31;20384;-72
2021/12/12 11:07:40;;;;;;;5.78;3.37;;;;;;;0.99;78.90;98861.97;4501984;31;20122;-72
2021/12/12 11:10:14;;;;;;;7.12;3.97;;;;;;;0.97;78.33;98868.09;4501641;31;20088;-72
2021/12/12 11:13:03;;;;;;;7.37;4.93;;;;;;;0.96;78.11;98882.75;4502190;31;20096;-73
2021/12/12 11:15:35;;;;;;;7.32;2.95;;;;;;;0.97;78.24;98860.38;4487589;31;20151;-72
2021/12/12 11:18:09;;;;;;;5.15;3.33;;;;;;;0.97;79.17;98861.22;4501845;31;20092;-72
2021/12/12 11:20:40;;;;;;;7.07;4.07;;;;;;;1.00;78.60;98873.13;4501671;31;20831;-72
2021/12/12 11:23:10;;;;;;;5.93;3.53;;;;;;;0.99;77.95;98874.03;4490337;31;20158;-72
2021/12/12 11:25:41;;;;;;;6.80;3.55;;;;;;;0.99;78.92;98863.72;4485847;31;20092;-72
2021/12/12 11:28:23;;;;;;;11.05;3.85;;;;;;;0.99;78.88;98861.97;4486763;31;20156;-72
2021/12/12 11:31:08;;;;;;;7.65;3.83;;;;;;;0.93;78.36;98844.22;4501522;31;20088;-72
2021/12/12 11:33:36;;;;;;;7.65;3.78;;;;;;;0.98;79.60;98860.28;4500380;31;20088;-72
2021/12/12 11:36:08;;;;;;;4.60;2.85;;;;;;;1.04;78.73;98861.75;4500486;31;20433;-72
2021/12/12 11:38:49;;;;;;;6.10;3.55;;;;;;;1.07;79.23;98856.44;4500425;31;20615;-72
2021/12/12 11:41:22;;;;;;;4.47;2.10;;;;;;;1.13;78.55;98850.97;4500289;31;20100;-72
2021/12/12 11:43:57;;;;;;;5.78;2.85;;;;;;;1.13;78.39;98853.56;4500548;31;20103;-72
2021/12/12 11:47:00;;;;;;;6.05;3.30;;;;;;;1.18;78.23;98856.75;4500644;31;20166;-72
2021/12/12 11:49:44;;;;;;;7.25;3.28;;;;;;;1.20;78.11;98841.19;4500356;31;20118;-72
2021/12/12 11:52:15;;;;;;;5.90;2.45;;;;;;;1.15;77.56;98849.19;4501765;31;20123;-72
2021/12/12 11:55:01;;;;;;;7.90;3.35;;;;;;;1.16;78.12;98848.25;4501254;31;20119;-72
2021/12/12 11:57:32;;;;;;;4.82;3.47;;;;;;;1.19;77.90;98836.94;4501469;31;20092;-72
2021/12/12 12:00:05;;;;;;;8.25;3.65;;;;;;;1.13;77.36;98835.50;4501320;31;20476;-72
2021/12/12 12:03:13;;;;;;;6.75;3.55;;;;;;;1.12;77.64;98854.50;4501269;31;20130;-72
2021/12/12 12:05:59;;;;;;;8.30;3.58;;;;;;;1.02;77.11;98866.16;4501493;31;20126;-72
2021/12/12 12:08:58;;;;;;;5.95;2.92;;;;;;;1.14;77.12;98862.97;4501434;31;20144;-72
2021/12/12 12:11:49;;;;;;;5.22;2.78;;;;;;;1.14;77.67;98793.31;4423736;32;20102;-72
2021/12/12 12:14:39;;;;;;;4.40;2.75;;;;;;;1.04;77.83;98859.16;4436627;32;20143;-72
2021/12/12 12:17:30;;;;;;;6.18;3.15;;;;;;;1.14;77.09;98862.97;4424297;32;20097;-72